Time,TemperatureF,DewpointF,PressureIn,WindDirection,WindDirectionDegrees,WindSpeedMPH,WindSpeedGustMPH,Humidity,HourlyPrecipIn,Conditions,Clouds,dailyrainin,SoftwareType,DateUTC
2013-01-20 00:00:00,15.2,5.8,29.97,West,274,7.0,11.0,66,-99.99,,,0.00,1-wire,2013-01-20 06:00:00,
2013-01-20 00:06:00,15.1,5.8,29.98,West,278,8.0,11.0,66,-99.99,,,0.00,1-wire,2013-01-20 06:06:00,
2013-01-20 00:11:00,14.9,5.4,29.99,West,278,6.0,11.0,65,-99.99,,,0.00,1-wire,2013-01-20 06:11:00,
2013-01-20 00:16:00,14.8,5.6,29.99,West,278,10.0,22.0,66,-99.99,,,0.00,1-wire,2013-01-20 06:16:00,
2013-01-20 00:22:00,14.9,5.9,29.99,WNW,282,4.0,9.0,67,-99.99,,,0.00,1-wire,2013-01-20 06:22:00,
2013-01-20 00:27:00,14.3,4.9,30.00,WNW,282,9.0,25.0,66,-99.99,,,0.00,1-wire,2013-01-20 06:27:00,
2013-01-20 00:32:00,14.0,4.5,30.00,WNW,282,10.0,22.0,65,-99.99,,,0.00,1-wire,2013-01-20 06:32:00,
2013-01-20 00:38:00,13.9,4.5,30.01,WNW,282,7.0,14.0,65,-99.99,,,0.00,1-wire,2013-01-20 06:38:00,
2013-01-20 00:43:00,13.9,4.9,30.01,WNW,282,7.0,12.0,67,-99.99,,,0.00,1-wire,2013-01-20 06:43:00,
2013-01-20 00:48:00,14.0,5.2,30.01,WNW,282,4.0,6.0,67,-99.99,,,0.00,1-wire,2013-01-20 06:48:00,
2013-01-20 00:53:00,13.6,5.1,30.01,WNW,282,8.0,14.0,68,-99.99,,,0.00,1-wire,2013-01-20 06:53:00,
2013-01-20 00:58:00,13.5,5.3,30.02,WNW,282,6.0,17.0,69,-99.99,,,0.00,1-wire,2013-01-20 06:58:00,
2013-01-20 01:04:00,13.3,5.4,30.02,WNW,282,6.0,16.0,70,-99.99,,,0.00,1-wire,2013-01-20 07:04:00,
2013-01-20 01:10:00,13.3,5.4,30.03,WNW,285,6.0,16.0,70,-99.99,,,0.00,1-wire,2013-01-20 07:10:00,
2013-01-20 01:15:00,13.0,4.9,30.03,WNW,285,5.0,14.0,69,-99.99,,,0.00,1-wire,2013-01-20 07:15:00,
2013-01-20 01:20:00,12.7,4.4,30.03,WNW,285,6.0,11.0,69,-99.99,,,0.00,1-wire,2013-01-20 07:20:00,
2013-01-20 01:25:00,12.3,4.0,30.03,WNW,289,9.0,17.0,69,-99.99,,,0.00,1-wire,2013-01-20 07:25:00,
2013-01-20 01:31:00,12.2,3.8,30.04,WNW,289,8.0,16.0,68,-99.99,,,0.00,1-wire,2013-01-20 07:31:00,
2013-01-20 01:37:00,12.3,4.3,30.05,WNW,289,3.0,9.0,69,-99.99,,,0.00,1-wire,2013-01-20 07:37:00,
2013-01-20 01:43:00,12.4,3.8,30.05,WNW,289,6.0,11.0,68,-99.99,,,0.00,1-wire,2013-01-20 07:43:00,
2013-01-20 01:48:00,11.9,3.2,30.05,WNW,289,5.0,9.0,67,-99.99,,,0.00,1-wire,2013-01-20 07:48:00,
2013-01-20 01:53:00,11.9,2.8,30.05,WNW,289,4.0,9.0,66,-99.99,,,0.00,1-wire,2013-01-20 07:53:00,
2013-01-20 01:58:00,11.9,3.4,30.07,WNW,289,2.0,6.0,68,-99.99,,,0.00,1-wire,2013-01-20 07:58:00,
2013-01-20 02:03:00,11.4,3.0,30.07,WNW,289,7.0,14.0,68,-99.99,,,0.00,1-wire,2013-01-20 08:03:00,
2013-01-20 02:09:00,11.2,2.6,30.07,WNW,289,5.0,12.0,68,-99.99,,,0.00,1-wire,2013-01-20 08:09:00,
2013-01-20 02:15:00,11.5,2.6,30.09,WNW,289,3.0,8.0,67,-99.99,,,0.00,1-wire,2013-01-20 08:15:00,
2013-01-20 02:20:00,10.8,2.2,30.10,WNW,289,4.0,9.0,67,-99.99,,,0.00,1-wire,2013-01-20 08:20:00,
2013-01-20 02:25:00,10.7,2.1,30.10,WNW,289,6.0,19.0,67,-99.99,,,0.00,1-wire,2013-01-20 08:25:00,
2013-01-20 02:30:00,10.5,1.8,30.10,WNW,289,7.0,13.0,67,-99.99,,,0.00,1-wire,2013-01-20 08:30:00,
2013-01-20 02:42:00,10.4,1.7,30.11,WNW,289,5.0,13.0,67,-99.99,,,0.00,1-wire,2013-01-20 08:42:00,
2013-01-20 02:47:00,10.5,2.1,30.12,WNW,289,5.0,9.0,68,-99.99,,,0.00,1-wire,2013-01-20 08:47:00,
2013-01-20 02:52:00,10.4,1.9,30.12,WNW,289,5.0,11.0,68,-99.99,,,0.00,1-wire,2013-01-20 08:52:00,
2013-01-20 02:58:00,10.0,1.4,30.12,WNW,289,5.0,11.0,67,-99.99,,,0.00,1-wire,2013-01-20 08:58:00,
2013-01-20 03:04:00,10.2,1.8,30.12,WNW,289,3.0,8.0,68,-99.99,,,0.00,1-wire,2013-01-20 09:04:00,
2013-01-20 03:10:00,10.0,1.3,30.13,WNW,285,6.0,14.0,67,-99.99,,,0.00,1-wire,2013-01-20 09:10:00,
2013-01-20 03:16:00,9.8,1.4,30.12,WNW,285,4.0,9.0,68,-99.99,,,0.00,1-wire,2013-01-20 09:16:00,
2013-01-20 03:22:00,9.7,1.4,30.13,WNW,282,5.0,12.0,68,-99.99,,,0.00,1-wire,2013-01-20 09:22:00,
2013-01-20 03:27:00,9.7,1.4,30.14,WNW,282,3.0,6.0,69,-99.99,,,0.00,1-wire,2013-01-20 09:27:00,
2013-01-20 03:32:00,9.7,1.6,30.14,WNW,282,3.0,8.0,69,-99.99,,,0.00,1-wire,2013-01-20 09:32:00,
2013-01-20 03:37:00,9.5,1.3,30.14,WNW,282,7.0,20.0,69,-99.99,,,0.00,1-wire,2013-01-20 09:37:00,
2013-01-20 03:43:00,9.5,1.2,30.14,WNW,282,5.0,9.0,68,-99.99,,,0.00,1-wire,2013-01-20 09:43:00,
2013-01-20 03:49:00,9.4,1.5,30.14,WNW,282,2.0,6.0,70,-99.99,,,0.00,1-wire,2013-01-20 09:49:00,
2013-01-20 03:55:00,9.6,1.9,30.14,WNW,282,3.0,6.0,70,-99.99,,,0.00,1-wire,2013-01-20 09:55:00,
2013-01-20 04:01:00,9.3,1.6,30.14,WNW,282,6.0,13.0,70,-99.99,,,0.00,1-wire,2013-01-20 10:01:00,
2013-01-20 04:07:00,9.3,1.6,30.15,WNW,282,3.0,9.0,70,-99.99,,,0.00,1-wire,2013-01-20 10:07:00,
2013-01-20 04:12:00,9.2,1.5,30.15,WNW,282,5.0,11.0,70,-99.99,,,0.00,1-wire,2013-01-20 10:12:00,
2013-01-20 04:17:00,9.5,1.7,30.15,WNW,282,1.0,3.0,70,-99.99,,,0.00,1-wire,2013-01-20 10:17:00,
2013-01-20 04:22:00,9.5,1.8,30.16,West,278,4.0,11.0,70,-99.99,,,0.00,1-wire,2013-01-20 10:22:00,
2013-01-20 04:27:00,9.3,1.5,30.16,West,278,4.0,8.0,70,-99.99,,,0.00,1-wire,2013-01-20 10:27:00,
2013-01-20 04:32:00,9.2,1.4,30.16,West,278,3.0,6.0,70,-99.99,,,0.00,1-wire,2013-01-20 10:32:00,
2013-01-20 04:37:00,8.8,1.1,30.16,West,278,4.0,9.0,70,-99.99,,,0.00,1-wire,2013-01-20 10:37:00,
2013-01-20 04:42:00,9.2,1.6,30.17,West,278,2.0,6.0,71,-99.99,,,0.00,1-wire,2013-01-20 10:42:00,
2013-01-20 04:47:00,9.1,1.8,30.17,West,278,4.0,9.0,71,-99.99,,,0.00,1-wire,2013-01-20 10:47:00,
2013-01-20 04:52:00,8.9,1.6,30.17,West,278,3.0,6.0,72,-99.99,,,0.00,1-wire,2013-01-20 10:52:00,
2013-01-20 04:57:00,9.0,2.1,30.17,West,278,2.0,6.0,73,-99.99,,,0.00,1-wire,2013-01-20 10:57:00,
2013-01-20 05:02:00,8.7,1.7,30.18,West,278,4.0,9.0,72,-99.99,,,0.00,1-wire,2013-01-20 11:02:00,
2013-01-20 05:07:00,9.0,1.8,30.18,West,278,5.0,9.0,72,-99.99,,,0.00,1-wire,2013-01-20 11:07:00,
2013-01-20 05:12:00,8.7,1.8,30.18,West,278,3.0,6.0,73,-99.99,,,0.00,1-wire,2013-01-20 11:12:00,
2013-01-20 05:17:00,8.7,1.7,30.18,West,278,3.0,6.0,73,-99.99,,,0.00,1-wire,2013-01-20 11:17:00,
2013-01-20 05:22:00,8.5,1.3,30.19,WNW,282,4.0,9.0,72,-99.99,,,0.00,1-wire,2013-01-20 11:22:00,
2013-01-20 05:27:00,8.6,1.9,30.20,WNW,282,4.0,9.0,73,-99.99,,,0.00,1-wire,2013-01-20 11:27:00,
2013-01-20 05:32:00,8.5,1.5,30.19,WNW,282,3.0,6.0,72,-99.99,,,0.00,1-wire,2013-01-20 11:32:00,
2013-01-20 05:38:00,8.5,1.5,30.19,WNW,282,4.0,6.0,73,-99.99,,,0.00,1-wire,2013-01-20 11:38:00,
2013-01-20 05:43:00,8.3,1.3,30.19,WNW,282,3.0,6.0,73,-99.99,,,0.00,1-wire,2013-01-20 11:43:00,
2013-01-20 05:48:00,8.3,1.4,30.19,WNW,282,3.0,6.0,73,-99.99,,,0.00,1-wire,2013-01-20 11:48:00,
2013-01-20 05:53:00,8.3,1.4,30.20,WNW,282,3.0,6.0,73,-99.99,,,0.00,1-wire,2013-01-20 11:53:00,
2013-01-20 05:58:00,8.4,1.6,30.20,WNW,282,4.0,6.0,73,-99.99,,,0.00,1-wire,2013-01-20 11:58:00,
2013-01-20 06:03:00,8.2,1.5,30.20,WNW,282,2.0,6.0,73,-99.99,,,0.00,1-wire,2013-01-20 12:03:00,
2013-01-20 06:08:00,8.2,1.5,30.20,WNW,282,6.0,14.0,73,-99.99,,,0.00,1-wire,2013-01-20 12:08:00,
2013-01-20 06:13:00,8.0,1.4,30.20,WNW,282,6.0,9.0,74,-99.99,,,0.00,1-wire,2013-01-20 12:13:00,
2013-01-20 06:19:00,8.0,1.5,30.21,WNW,282,4.0,9.0,74,-99.99,,,0.00,1-wire,2013-01-20 12:19:00,
2013-01-20 06:24:00,8.1,1.5,30.21,WNW,282,4.0,9.0,74,-99.99,,,0.00,1-wire,2013-01-20 12:24:00,
2013-01-20 06:29:00,8.0,1.5,30.21,WNW,282,4.0,8.0,74,-99.99,,,0.00,1-wire,2013-01-20 12:29:00,
2013-01-20 06:34:00,8.2,1.6,30.22,WNW,282,1.0,3.0,74,-99.99,,,0.00,1-wire,2013-01-20 12:34:00,
2013-01-20 06:39:00,8.0,1.6,30.22,WNW,282,4.0,9.0,74,-99.99,,,0.00,1-wire,2013-01-20 12:39:00,
2013-01-20 06:44:00,8.0,1.4,30.22,WNW,282,3.0,6.0,74,-99.99,,,0.00,1-wire,2013-01-20 12:44:00,
2013-01-20 06:49:00,8.5,2.1,30.22,WNW,282,1.0,3.0,74,-99.99,,,0.00,1-wire,2013-01-20 12:49:00,
2013-01-20 06:54:00,8.0,1.6,30.22,WNW,282,4.0,9.0,75,-99.99,,,0.00,1-wire,2013-01-20 12:54:00,
2013-01-20 06:59:00,8.6,2.3,30.22,WNW,282,1.0,3.0,75,-99.99,,,0.00,1-wire,2013-01-20 12:59:00,
2013-01-20 07:04:00,8.4,2.2,30.22,WNW,282,3.0,6.0,75,-99.99,,,0.00,1-wire,2013-01-20 13:04:00,
2013-01-20 07:09:00,7.7,1.5,30.22,WNW,285,6.0,14.0,75,-99.99,,,0.00,1-wire,2013-01-20 13:09:00,
2013-01-20 07:14:00,7.6,1.4,30.23,WNW,285,4.0,9.0,75,-99.99,,,0.00,1-wire,2013-01-20 13:14:00,
2013-01-20 07:19:00,7.7,1.6,30.22,WNW,285,1.0,3.0,76,-99.99,,,0.00,1-wire,2013-01-20 13:19:00,
2013-01-20 07:24:00,7.5,1.5,30.23,WNW,289,2.0,6.0,76,-99.99,,,0.00,1-wire,2013-01-20 13:24:00,
2013-01-20 07:30:00,7.8,1.7,30.23,WNW,289,2.0,3.0,76,-99.99,,,0.00,1-wire,2013-01-20 13:30:00,
2013-01-20 07:35:00,7.8,1.9,30.24,WNW,289,4.0,6.0,76,-99.99,,,0.00,1-wire,2013-01-20 13:35:00,
2013-01-20 07:41:00,7.6,1.8,30.25,WNW,289,4.0,8.0,76,-99.99,,,0.00,1-wire,2013-01-20 13:41:00,
2013-01-20 07:46:00,7.7,1.6,30.25,WNW,289,4.0,8.0,76,-99.99,,,0.00,1-wire,2013-01-20 13:46:00,
2013-01-20 07:51:00,7.7,1.6,30.25,WNW,289,3.0,8.0,76,-99.99,,,0.00,1-wire,2013-01-20 13:51:00,
2013-01-20 07:57:00,7.8,1.9,30.26,WNW,289,3.0,11.0,76,-99.99,,,0.00,1-wire,2013-01-20 13:57:00,
2013-01-20 08:02:00,7.7,1.8,30.25,WNW,289,4.0,6.0,76,-99.99,,,0.00,1-wire,2013-01-20 14:02:00,
2013-01-20 08:08:00,8.0,2.1,30.25,WNW,285,1.0,3.0,76,-99.99,,,0.00,1-wire,2013-01-20 14:08:00,
2013-01-20 08:13:00,7.7,1.6,30.26,WNW,285,4.0,13.0,75,-99.99,,,0.00,1-wire,2013-01-20 14:13:00,
2013-01-20 08:18:00,7.9,1.8,30.26,WNW,285,4.0,9.0,75,-99.99,,,0.00,1-wire,2013-01-20 14:18:00,
2013-01-20 08:24:00,8.3,1.9,30.26,WNW,285,3.0,8.0,74,-99.99,,,0.00,1-wire,2013-01-20 14:24:00,
2013-01-20 08:30:00,8.3,1.6,30.26,WNW,285,5.0,11.0,73,-99.99,,,0.00,1-wire,2013-01-20 14:30:00,
2013-01-20 08:35:00,8.5,1.9,30.27,WNW,285,4.0,9.0,74,-99.99,,,0.00,1-wire,2013-01-20 14:35:00,
2013-01-20 08:41:00,8.1,1.5,30.26,WNW,285,2.0,6.0,74,-99.99,,,0.00,1-wire,2013-01-20 14:41:00,
2013-01-20 08:46:00,8.9,2.1,30.26,WNW,285,3.0,6.0,73,-99.99,,,0.00,1-wire,2013-01-20 14:46:00,
2013-01-20 08:51:00,9.1,2.1,30.26,WNW,285,3.0,6.0,73,-99.99,,,0.00,1-wire,2013-01-20 14:51:00,
2013-01-20 08:57:00,9.2,2.5,30.26,WNW,285,2.0,6.0,74,-99.99,,,0.00,1-wire,2013-01-20 14:57:00,
2013-01-20 09:02:00,10.1,2.4,30.27,WNW,285,4.0,9.0,71,-99.99,,,0.00,1-wire,2013-01-20 15:02:00,
2013-01-20 09:07:00,10.6,3.0,30.27,WNW,289,1.0,3.0,71,-99.99,,,0.00,1-wire,2013-01-20 15:07:00,
2013-01-20 09:13:00,10.2,2.4,30.27,WNW,289,3.0,11.0,70,-99.99,,,0.00,1-wire,2013-01-20 15:13:00,
2013-01-20 09:19:00,10.3,2.9,30.27,WNW,289,3.0,6.0,71,-99.99,,,0.00,1-wire,2013-01-20 15:19:00,
2013-01-20 09:25:00,10.2,2.7,30.27,WNW,293,2.0,6.0,71,-99.99,,,0.00,1-wire,2013-01-20 15:25:00,
2013-01-20 09:30:00,10.5,2.9,30.27,WNW,293,3.0,6.0,71,-99.99,,,0.00,1-wire,2013-01-20 15:30:00,
2013-01-20 09:36:00,10.0,2.2,30.27,WNW,293,2.0,6.0,70,-99.99,,,0.00,1-wire,2013-01-20 15:36:00,
2013-01-20 09:41:00,10.0,2.1,30.27,WNW,293,4.0,8.0,70,-99.99,,,0.00,1-wire,2013-01-20 15:41:00,
2013-01-20 09:47:00,10.7,2.8,30.27,WNW,293,2.0,3.0,70,-99.99,,,0.00,1-wire,2013-01-20 15:47:00,
2013-01-20 09:52:00,10.3,2.5,30.28,WNW,293,5.0,9.0,70,-99.99,,,0.00,1-wire,2013-01-20 15:52:00,
2013-01-20 09:57:00,11.0,2.8,30.28,WNW,293,2.0,6.0,69,-99.99,,,0.00,1-wire,2013-01-20 15:57:00,
2013-01-20 10:02:00,10.4,2.1,30.28,WNW,293,5.0,9.0,68,-99.99,,,0.00,1-wire,2013-01-20 16:02:00,
2013-01-20 10:07:00,11.1,3.1,30.27,WNW,284,2.0,8.0,70,-99.99,,,0.00,1-wire,2013-01-20 16:07:00,
2013-01-20 10:12:00,10.7,2.4,30.29,WNW,284,4.0,6.0,69,-99.99,,,0.00,1-wire,2013-01-20 16:12:00,
2013-01-20 10:18:00,9.9,2.0,30.29,WNW,284,4.0,9.0,70,-99.99,,,0.00,1-wire,2013-01-20 16:18:00,
2013-01-20 10:24:00,11.0,2.8,30.29,WNW,284,2.0,3.0,69,-99.99,,,0.00,1-wire,2013-01-20 16:24:00,
2013-01-20 10:29:00,12.5,3.2,30.29,WNW,284,4.0,7.0,66,-99.99,,,0.00,1-wire,2013-01-20 16:29:00,
2013-01-20 10:34:00,12.8,2.8,30.29,WNW,284,4.0,6.0,64,-99.99,,,0.00,1-wire,2013-01-20 16:34:00,
2013-01-20 10:39:00,11.9,2.4,30.29,WNW,284,4.0,8.0,65,-99.99,,,0.00,1-wire,2013-01-20 16:39:00,
2013-01-20 10:44:00,12.8,3.3,30.29,WNW,284,4.0,9.0,65,-99.99,,,0.00,1-wire,2013-01-20 16:44:00,
2013-01-20 10:49:00,12.3,3.1,30.29,WNW,284,5.0,9.0,66,-99.99,,,0.00,1-wire,2013-01-20 16:49:00,
2013-01-20 10:54:00,12.5,3.0,30.29,WNW,284,3.0,10.0,65,-99.99,,,0.00,1-wire,2013-01-20 16:54:00,
2013-01-20 10:59:00,12.4,2.7,30.29,WNW,284,5.0,9.0,64,-99.99,,,0.00,1-wire,2013-01-20 16:59:00,
2013-01-20 11:04:00,12.5,2.5,30.29,WNW,284,3.0,6.0,63,-99.99,,,0.00,1-wire,2013-01-20 17:04:00,
2013-01-20 11:09:00,12.7,2.5,30.29,WNW,293,3.0,8.0,63,-99.99,,,0.00,1-wire,2013-01-20 17:09:00,
2013-01-20 11:14:00,12.8,2.6,30.28,WNW,293,4.0,11.0,63,-99.99,,,0.00,1-wire,2013-01-20 17:14:00,
2013-01-20 11:19:00,12.8,2.1,30.28,WNW,293,5.0,9.0,62,-99.99,,,0.00,1-wire,2013-01-20 17:19:00,
2013-01-20 11:24:00,12.7,2.6,30.27,West,274,4.0,9.0,63,-99.99,,,0.00,1-wire,2013-01-20 17:24:00,
2013-01-20 11:29:00,12.8,2.2,30.27,West,274,4.0,8.0,62,-99.99,,,0.00,1-wire,2013-01-20 17:29:00,
2013-01-20 11:34:00,12.7,2.4,30.27,West,274,2.0,6.0,63,-99.99,,,0.00,1-wire,2013-01-20 17:34:00,
2013-01-20 11:39:00,13.0,2.2,30.27,West,274,3.0,6.0,61,-99.99,,,0.00,1-wire,2013-01-20 17:39:00,
2013-01-20 11:44:00,13.2,2.7,30.27,West,274,4.0,6.0,62,-99.99,,,0.00,1-wire,2013-01-20 17:44:00,
2013-01-20 12:04:00,13.6,2.2,30.26,West,274,5.0,9.0,60,-99.99,,,0.00,1-wire,2013-01-20 18:04:00,
2013-01-20 12:09:00,12.9,1.7,30.26,West,270,7.0,13.0,60,-99.99,,,0.00,1-wire,2013-01-20 18:09:00,
2013-01-20 12:14:00,13.9,2.5,30.25,West,270,3.0,6.0,60,-99.99,,,0.00,1-wire,2013-01-20 18:14:00,
2013-01-20 12:19:00,13.7,2.2,30.26,West,270,3.0,6.0,59,-99.99,,,0.00,1-wire,2013-01-20 18:19:00,
2013-01-20 12:24:00,13.9,2.9,30.25,West,274,4.0,9.0,61,-99.99,,,0.00,1-wire,2013-01-20 18:24:00,
2013-01-20 12:29:00,14.1,2.6,30.25,West,274,4.0,13.0,59,-99.99,,,0.00,1-wire,2013-01-20 18:29:00,
2013-01-20 12:34:00,13.7,2.7,30.25,West,274,3.0,6.0,61,-99.99,,,0.00,1-wire,2013-01-20 18:34:00,
2013-01-20 12:39:00,14.5,3.0,30.24,West,274,3.0,6.0,60,-99.99,,,0.00,1-wire,2013-01-20 18:39:00,
2013-01-20 12:44:00,14.6,3.2,30.25,West,274,4.0,6.0,60,-99.99,,,0.00,1-wire,2013-01-20 18:44:00,
2013-01-20 12:49:00,14.7,3.3,30.24,West,274,4.0,9.0,60,-99.99,,,0.00,1-wire,2013-01-20 18:49:00,
2013-01-20 12:54:00,15.0,3.2,30.23,West,274,3.0,6.0,59,-99.99,,,0.00,1-wire,2013-01-20 18:54:00,
2013-01-20 12:59:00,14.6,3.6,30.23,West,274,3.0,6.0,61,-99.99,,,0.00,1-wire,2013-01-20 18:59:00,
2013-01-20 13:04:00,14.2,2.8,30.23,West,274,5.0,9.0,60,-99.99,,,0.00,1-wire,2013-01-20 19:04:00,
2013-01-20 13:09:00,15.3,3.7,30.23,West,264,2.0,6.0,59,-99.99,,,0.00,1-wire,2013-01-20 19:09:00,
2013-01-20 13:14:00,15.3,2.9,30.24,West,264,6.0,13.0,57,-99.99,,,0.00,1-wire,2013-01-20 19:14:00,
2013-01-20 13:19:00,15.1,2.7,30.23,West,264,3.0,8.0,57,-99.99,,,0.00,1-wire,2013-01-20 19:19:00,
2013-01-20 13:24:00,15.5,3.1,30.24,West,271,3.0,8.0,57,-99.99,,,0.00,1-wire,2013-01-20 19:24:00,
2013-01-20 13:29:00,15.3,3.1,30.23,West,271,3.0,6.0,58,-99.99,,,0.00,1-wire,2013-01-20 19:29:00,
2013-01-20 13:34:00,15.4,2.8,30.23,West,271,4.0,6.0,57,-99.99,,,0.00,1-wire,2013-01-20 19:34:00,
2013-01-20 13:48:00,15.7,2.3,30.23,West,271,5.0,11.0,55,-99.99,,,0.00,1-wire,2013-01-20 19:48:00,
2013-01-20 13:54:00,15.6,2.7,30.23,West,271,4.0,8.0,56,-99.99,,,0.00,1-wire,2013-01-20 19:54:00,
2013-01-20 13:59:00,15.3,2.2,30.24,West,271,5.0,11.0,55,-99.99,,,0.00,1-wire,2013-01-20 19:59:00,
2013-01-20 14:04:00,14.8,2.0,30.23,West,271,4.0,6.0,56,-99.99,,,0.00,1-wire,2013-01-20 20:04:00,
2013-01-20 14:09:00,15.4,3.3,30.24,West,263,4.0,6.0,58,-99.99,,,0.00,1-wire,2013-01-20 20:09:00,
2013-01-20 14:15:00,15.5,3.3,30.24,West,263,4.0,6.0,58,-99.99,,,0.00,1-wire,2013-01-20 20:15:00,
2013-01-20 14:20:00,15.1,2.4,30.24,West,263,5.0,9.0,56,-99.99,,,0.00,1-wire,2013-01-20 20:20:00,
2013-01-20 14:25:00,15.3,2.7,30.24,West,267,5.0,11.0,57,-99.99,,,0.00,1-wire,2013-01-20 20:25:00,
2013-01-20 14:31:00,15.1,2.4,30.24,West,267,5.0,9.0,56,-99.99,,,0.00,1-wire,2013-01-20 20:31:00,
2013-01-20 14:36:00,14.9,2.0,30.23,West,267,5.0,8.0,56,-99.99,,,0.00,1-wire,2013-01-20 20:36:00,
2013-01-20 14:41:00,15.5,2.2,30.23,West,267,6.0,11.0,55,-99.99,,,0.00,1-wire,2013-01-20 20:41:00,
2013-01-20 14:46:00,15.5,2.8,30.23,West,267,4.0,7.0,56,-99.99,,,0.00,1-wire,2013-01-20 20:46:00,
2013-01-20 14:52:00,15.2,1.9,30.23,West,267,4.0,8.0,55,-99.99,,,0.00,1-wire,2013-01-20 20:52:00,
2013-01-20 14:57:00,15.9,2.6,30.23,West,267,2.0,3.0,55,-99.99,,,0.00,1-wire,2013-01-20 20:57:00,
2013-01-20 15:03:00,16.3,2.7,30.23,West,267,2.0,6.0,54,-99.99,,,0.00,1-wire,2013-01-20 21:03:00,
2013-01-20 15:08:00,16.0,2.0,30.23,WNW,285,5.0,12.0,53,-99.99,,,0.00,1-wire,2013-01-20 21:08:00,
2013-01-20 15:14:00,16.1,2.2,30.22,WNW,285,3.0,8.0,54,-99.99,,,0.00,1-wire,2013-01-20 21:14:00,
2013-01-20 15:19:00,16.0,2.3,30.22,WNW,285,3.0,8.0,54,-99.99,,,0.00,1-wire,2013-01-20 21:19:00,
2013-01-20 15:25:00,16.2,2.1,30.23,West,270,2.0,3.0,53,-99.99,,,0.00,1-wire,2013-01-20 21:25:00,
2013-01-20 15:31:00,15.9,1.8,30.22,West,270,5.0,9.0,53,-99.99,,,0.00,1-wire,2013-01-20 21:31:00,
2013-01-20 15:36:00,15.8,1.4,30.22,West,270,3.0,6.0,52,-99.99,,,0.00,1-wire,2013-01-20 21:36:00,
2013-01-20 15:42:00,15.8,1.6,30.22,West,270,3.0,6.0,52,-99.99,,,0.00,1-wire,2013-01-20 21:42:00,
2013-01-20 15:48:00,16.0,1.5,30.22,West,270,2.0,6.0,52,-99.99,,,0.00,1-wire,2013-01-20 21:48:00,
2013-01-20 15:54:00,16.2,1.5,30.22,West,270,4.0,9.0,51,-99.99,,,0.00,1-wire,2013-01-20 21:54:00,
2013-01-20 15:59:00,16.4,2.0,30.22,West,270,3.0,9.0,52,-99.99,,,0.00,1-wire,2013-01-20 21:59:00,
2013-01-20 16:04:00,15.8,1.6,30.21,West,270,3.0,6.0,53,-99.99,,,0.00,1-wire,2013-01-20 22:04:00,
2013-01-20 16:10:00,15.9,1.4,30.22,West,278,1.0,6.0,52,-99.99,,,0.00,1-wire,2013-01-20 22:10:00,
2013-01-20 16:15:00,15.8,1.4,30.22,West,278,2.0,6.0,52,-99.99,,,0.00,1-wire,2013-01-20 22:15:00,
2013-01-20 16:20:00,15.8,2.0,30.22,West,278,2.0,3.0,54,-99.99,,,0.00,1-wire,2013-01-20 22:20:00,
2013-01-20 16:26:00,15.6,1.7,30.22,WNW,282,1.0,3.0,54,-99.99,,,0.00,1-wire,2013-01-20 22:26:00,
2013-01-20 16:31:00,15.2,1.1,30.22,WNW,282,5.0,10.0,53,-99.99,,,0.00,1-wire,2013-01-20 22:31:00,
2013-01-20 16:36:00,15.5,2.0,30.22,WNW,282,1.0,3.0,54,-99.99,,,0.00,1-wire,2013-01-20 22:36:00,
2013-01-20 16:42:00,15.2,1.6,30.22,WNW,282,0.0,3.0,54,-99.99,,,0.00,1-wire,2013-01-20 22:42:00,
2013-01-20 16:47:00,15.2,2.1,30.22,WNW,282,1.0,3.0,55,-99.99,,,0.00,1-wire,2013-01-20 22:47:00,
2013-01-20 16:52:00,14.8,1.2,30.21,WNW,282,3.0,6.0,54,-99.99,,,0.00,1-wire,2013-01-20 22:52:00,
2013-01-20 16:58:00,14.8,1.6,30.22,WNW,282,4.0,6.0,55,-99.99,,,0.00,1-wire,2013-01-20 22:58:00,
2013-01-20 17:04:00,14.5,1.5,30.22,WNW,282,6.0,12.0,56,-99.99,,,0.00,1-wire,2013-01-20 23:04:00,
2013-01-20 17:09:00,14.4,1.6,30.22,West,270,3.0,9.0,56,-99.99,,,0.00,1-wire,2013-01-20 23:09:00,
2013-01-20 17:14:00,14.4,1.5,30.22,West,270,1.0,3.0,56,-99.99,,,0.00,1-wire,2013-01-20 23:14:00,
2013-01-20 17:19:00,14.1,1.3,30.21,West,270,3.0,6.0,56,-99.99,,,0.00,1-wire,2013-01-20 23:19:00,
2013-01-20 17:25:00,14.4,1.7,30.22,West,263,3.0,6.0,56,-99.99,,,0.00,1-wire,2013-01-20 23:25:00,
2013-01-20 17:30:00,14.3,1.3,30.22,West,263,2.0,6.0,55,-99.99,,,0.00,1-wire,2013-01-20 23:30:00,
2013-01-20 17:35:00,14.6,1.8,30.22,West,263,2.0,3.0,56,-99.99,,,0.00,1-wire,2013-01-20 23:35:00,
2013-01-20 17:40:00,14.3,2.0,30.22,West,263,1.0,3.0,57,-99.99,,,0.00,1-wire,2013-01-20 23:40:00,
2013-01-20 17:46:00,13.9,1.4,30.22,West,263,4.0,6.0,57,-99.99,,,0.00,1-wire,2013-01-20 23:46:00,
2013-01-20 17:52:00,13.9,1.5,30.22,West,263,2.0,3.0,57,-99.99,,,0.00,1-wire,2013-01-20 23:52:00,
2013-01-20 17:58:00,13.9,1.7,30.22,West,263,1.0,3.0,58,-99.99,,,0.00,1-wire,2013-01-20 23:58:00,
2013-01-20 18:03:00,14.3,2.6,30.22,West,263,0.0,0.0,59,-99.99,,,0.00,1-wire,2013-01-21 00:03:00,
2013-01-20 18:08:00,14.0,2.2,30.22,West,263,1.0,3.0,59,-99.99,,,0.00,1-wire,2013-01-21 00:08:00,
2013-01-20 18:13:00,13.6,1.9,30.22,West,263,0.0,3.0,59,-99.99,,,0.00,1-wire,2013-01-21 00:13:00,
2013-01-20 18:18:00,13.8,2.0,30.22,West,263,1.0,6.0,59,-99.99,,,0.00,1-wire,2013-01-21 00:18:00,
2013-01-20 18:23:00,13.7,1.8,30.22,West,267,1.0,3.0,58,-99.99,,,0.00,1-wire,2013-01-21 00:23:00,
2013-01-20 18:28:00,13.7,1.8,30.22,West,267,1.0,3.0,58,-99.99,,,0.00,1-wire,2013-01-21 00:28:00,
2013-01-20 18:33:00,13.4,1.5,30.22,West,267,2.0,6.0,58,-99.99,,,0.00,1-wire,2013-01-21 00:33:00,
2013-01-20 18:38:00,13.6,1.8,30.22,West,267,1.0,3.0,58,-99.99,,,0.00,1-wire,2013-01-21 00:38:00,
2013-01-20 18:43:00,14.0,2.1,30.22,West,267,1.0,3.0,58,-99.99,,,0.00,1-wire,2013-01-21 00:43:00,
2013-01-20 18:48:00,13.5,2.2,30.22,West,267,2.0,3.0,60,-99.99,,,0.00,1-wire,2013-01-21 00:48:00,
2013-01-20 18:53:00,13.6,2.3,30.22,West,267,1.0,3.0,60,-99.99,,,0.00,1-wire,2013-01-21 00:53:00,
2013-01-20 18:58:00,13.6,2.5,30.22,West,267,2.0,5.0,60,-99.99,,,0.00,1-wire,2013-01-21 00:58:00,
2013-01-20 19:03:00,13.4,2.2,30.21,West,267,1.0,3.0,60,-99.99,,,0.00,1-wire,2013-01-21 01:03:00,
2013-01-20 19:08:00,13.7,2.5,30.22,West,263,1.0,3.0,60,-99.99,,,0.00,1-wire,2013-01-21 01:08:00,
2013-01-20 19:13:00,13.5,2.7,30.21,West,263,0.0,3.0,61,-99.99,,,0.00,1-wire,2013-01-21 01:13:00,
2013-01-20 19:18:00,13.3,2.6,30.20,West,263,3.0,6.0,62,-99.99,,,0.00,1-wire,2013-01-21 01:18:00,
2013-01-20 19:23:00,13.4,2.8,30.20,West,263,0.0,3.0,62,-99.99,,,0.00,1-wire,2013-01-21 01:23:00,
2013-01-20 19:28:00,13.4,3.1,30.20,West,263,1.0,3.0,63,-99.99,,,0.00,1-wire,2013-01-21 01:28:00,
2013-01-20 19:33:00,13.4,3.1,30.20,West,263,0.0,0.0,63,-99.99,,,0.00,1-wire,2013-01-21 01:33:00,
2013-01-20 19:38:00,12.9,2.9,30.20,West,263,0.0,3.0,63,-99.99,,,0.00,1-wire,2013-01-21 01:38:00,
2013-01-20 19:43:00,13.1,3.1,30.20,West,263,0.0,0.0,63,-99.99,,,0.00,1-wire,2013-01-21 01:43:00,
2013-01-20 19:49:00,13.0,3.3,30.20,West,263,0.0,3.0,64,-99.99,,,0.00,1-wire,2013-01-21 01:49:00,
2013-01-20 19:54:00,13.0,3.1,30.20,West,263,1.0,3.0,64,-99.99,,,0.00,1-wire,2013-01-21 01:54:00,
2013-01-20 19:59:00,13.4,3.3,30.20,West,263,0.0,3.0,63,-99.99,,,0.00,1-wire,2013-01-21 01:59:00,
2013-01-20 20:04:00,13.0,3.2,30.20,West,263,0.0,3.0,64,-99.99,,,0.00,1-wire,2013-01-21 02:04:00,
2013-01-20 20:09:00,12.8,3.1,30.20,WSW,252,2.0,3.0,65,-99.99,,,0.00,1-wire,2013-01-21 02:09:00,
2013-01-20 20:14:00,12.7,3.3,30.20,WSW,252,0.0,3.0,65,-99.99,,,0.00,1-wire,2013-01-21 02:14:00,
2013-01-20 20:19:00,13.0,3.6,30.20,WSW,252,0.0,3.0,65,-99.99,,,0.00,1-wire,2013-01-21 02:19:00,
2013-01-20 20:24:00,12.7,3.2,30.20,West,265,1.0,3.0,65,-99.99,,,0.00,1-wire,2013-01-21 02:24:00,
2013-01-20 20:29:00,12.4,3.0,30.20,West,265,1.0,3.0,65,-99.99,,,0.00,1-wire,2013-01-21 02:29:00,
2013-01-20 20:34:00,12.1,3.1,30.20,West,265,2.0,6.0,67,-99.99,,,0.00,1-wire,2013-01-21 02:34:00,
2013-01-20 20:39:00,12.1,2.9,30.19,West,265,2.0,3.0,66,-99.99,,,0.00,1-wire,2013-01-21 02:39:00,
2013-01-20 20:44:00,12.1,2.8,30.19,West,265,2.0,6.0,65,-99.99,,,0.00,1-wire,2013-01-21 02:44:00,
2013-01-20 20:50:00,12.0,2.6,30.19,West,265,3.0,6.0,65,-99.99,,,0.00,1-wire,2013-01-21 02:50:00,
2013-01-20 20:55:00,12.1,3.0,30.19,West,265,1.0,3.0,66,-99.99,,,0.00,1-wire,2013-01-21 02:55:00,
2013-01-20 21:01:00,11.6,2.7,30.19,West,265,1.0,3.0,67,-99.99,,,0.00,1-wire,2013-01-21 03:01:00,
2013-01-20 21:06:00,11.4,2.4,30.19,West,281,2.0,6.0,66,-99.99,,,0.00,1-wire,2013-01-21 03:06:00,
2013-01-20 21:11:00,11.6,2.4,30.19,West,281,4.0,8.0,66,-99.99,,,0.00,1-wire,2013-01-21 03:11:00,
2013-01-20 21:16:00,11.6,2.6,30.18,West,281,1.0,3.0,66,-99.99,,,0.00,1-wire,2013-01-21 03:16:00,
2013-01-20 21:21:00,11.8,2.9,30.18,West,281,0.0,3.0,67,-99.99,,,0.00,1-wire,2013-01-21 03:21:00,
2013-01-20 21:27:00,11.5,2.9,30.19,West,281,2.0,6.0,68,-99.99,,,0.00,1-wire,2013-01-21 03:27:00,
2013-01-20 21:33:00,11.5,2.8,30.18,West,281,2.0,3.0,67,-99.99,,,0.00,1-wire,2013-01-21 03:33:00,
2013-01-20 21:38:00,11.4,2.6,30.19,West,281,2.0,6.0,67,-99.99,,,0.00,1-wire,2013-01-21 03:38:00,
2013-01-20 21:43:00,11.2,2.3,30.18,West,281,1.0,3.0,66,-99.99,,,0.00,1-wire,2013-01-21 03:43:00,
2013-01-20 21:48:00,11.3,2.3,30.18,West,281,3.0,8.0,66,-99.99,,,0.00,1-wire,2013-01-21 03:48:00,
2013-01-20 21:54:00,11.1,2.2,30.18,West,281,3.0,6.0,67,-99.99,,,0.00,1-wire,2013-01-21 03:54:00,
2013-01-20 22:00:00,11.3,2.6,30.18,West,281,1.0,6.0,67,-99.99,,,0.00,1-wire,2013-01-21 04:00:00,
2013-01-20 22:05:00,10.9,2.1,30.18,West,281,2.0,9.0,67,-99.99,,,0.00,1-wire,2013-01-21 04:05:00,
2013-01-20 22:10:00,10.9,2.0,30.18,West,281,1.0,3.0,66,-99.99,,,0.00,1-wire,2013-01-21 04:10:00,
2013-01-20 22:15:00,11.2,2.3,30.17,West,281,2.0,6.0,67,-99.99,,,0.00,1-wire,2013-01-21 04:15:00,
2013-01-20 22:21:00,11.2,2.3,30.16,West,260,1.0,3.0,67,-99.99,,,0.00,1-wire,2013-01-21 04:21:00,
2013-01-20 22:27:00,11.3,2.4,30.16,West,260,2.0,6.0,67,-99.99,,,0.00,1-wire,2013-01-21 04:27:00,
2013-01-20 22:33:00,11.1,2.3,30.16,West,260,2.0,3.0,67,-99.99,,,0.00,1-wire,2013-01-21 04:33:00,
2013-01-20 22:38:00,11.5,2.6,30.16,West,260,1.0,3.0,67,-99.99,,,0.00,1-wire,2013-01-21 04:38:00,
2013-01-20 22:43:00,11.2,2.4,30.16,West,260,4.0,8.0,67,-99.99,,,0.00,1-wire,2013-01-21 04:43:00,
2013-01-20 22:48:00,11.3,2.4,30.16,West,260,4.0,8.0,67,-99.99,,,0.00,1-wire,2013-01-21 04:48:00,
2013-01-20 22:53:00,11.4,2.4,30.16,West,260,3.0,6.0,66,-99.99,,,0.00,1-wire,2013-01-21 04:53:00,
2013-01-20 22:59:00,11.5,2.8,30.16,West,260,2.0,6.0,67,-99.99,,,0.00,1-wire,2013-01-21 04:59:00,
2013-01-20 23:00:00,11.7,2.8,30.16,West,260,1.0,3.0,67,-99.99,,,0.00,1-wire,2013-01-21 05:00:00,
2013-01-20 23:04:00,11.4,2.6,30.16,West,260,5.0,9.0,67,-99.99,,,0.00,1-wire,2013-01-21 05:04:00,
2013-01-20 23:07:00,11.6,2.6,30.16,WNW,283,3.0,6.0,66,-99.99,,,0.00,1-wire,2013-01-21 05:07:00,
2013-01-20 23:12:00,12.0,3.0,30.16,WNW,283,4.0,9.0,66,-99.99,,,0.00,1-wire,2013-01-21 05:12:00,
2013-01-20 23:18:00,12.0,3.5,30.16,WNW,283,2.0,3.0,68,-99.99,,,0.00,1-wire,2013-01-21 05:18:00,
2013-01-20 23:19:00,12.2,3.8,30.16,WNW,283,2.0,6.0,68,-99.99,,,0.00,1-wire,2013-01-21 05:19:00,
2013-01-20 23:24:00,12.1,3.4,30.16,WNW,284,5.0,8.0,68,-99.99,,,0.00,1-wire,2013-01-21 05:24:00,
2013-01-20 23:29:00,11.7,3.1,30.16,WNW,284,5.0,9.0,68,-99.99,,,0.00,1-wire,2013-01-21 05:29:00,
2013-01-20 23:34:00,11.3,2.9,30.15,WNW,284,4.0,13.0,68,-99.99,,,0.00,1-wire,2013-01-21 05:34:00,
2013-01-20 23:39:00,11.2,3.0,30.15,WNW,284,5.0,8.0,69,-99.99,,,0.00,1-wire,2013-01-21 05:39:00,
2013-01-20 23:45:00,11.7,3.4,30.15,WNW,284,3.0,6.0,69,-99.99,,,0.00,1-wire,2013-01-21 05:45:00,
2013-01-20 23:50:00,11.9,3.4,30.15,WNW,284,1.0,3.0,68,-99.99,,,0.00,1-wire,2013-01-21 05:50:00,
2013-01-20 23:55:00,11.6,3.4,30.14,WNW,284,1.0,3.0,69,-99.99,,,0.00,1-wire,2013-01-21 05:55:00,